Time;durP1;ratioP1;P1;durP2;ratioP2;P2;SDS_P1;SDS_P2;PMS_P1;PMS_P2;Temp;Humidity;BMP_temperature;BMP_pressure;BME280_temperature;BME280_humidity;BME280_pressure;Samples;Min_cycle;Max_cycle;Signal;HPM_P1;HPM_P2
2022/01/03 00:00:24;;;;;;;6.70;1.90;;;10.30;99.90;;;;;;5038015;28;20033;-74
2022/01/03 00:02:54;;;;;;;5.07;2.20;;;10.40;99.90;;;;;;5048162;28;20100;-74
2022/01/03 00:05:20;;;;;;;5.13;1.90;;;10.40;99.90;;;;;;5044303;28;20049;-74
2022/01/03 00:07:46;;;;;;;9.05;1.90;;;10.30;99.90;;;;;;5030186;28;20072;-72
2022/01/03 00:10:14;;;;;;;7.07;2.13;;;10.40;99.90;;;;;;5048717;28;20028;-74
2022/01/03 00:12:41;;;;;;;5.07;1.70;;;10.40;99.90;;;;;;5041877;28;20049;-74
2022/01/03 00:15:10;;;;;;;5.07;1.80;;;10.50;99.90;;;;;;5031141;28;20037;-74
2022/01/03 00:17:36;;;;;;;5.72;1.77;;;10.40;99.90;;;;;;5027610;28;20291;-73
2022/01/03 00:20:04;;;;;;;7.68;3.00;;;10.30;99.90;;;;;;5046149;28;20028;-73
2022/01/03 00:22:56;;;;;;;5.28;1.83;;;10.30;99.90;;;;;;5044464;28;20512;-74
2022/01/03 00:25:24;;;;;;;4.85;2.38;;;10.40;99.90;;;;;;5022769;28;20060;-74
2022/01/03 00:28:23;;;;;;;7.35;2.30;;;10.40;99.90;;;;;;5036488;28;20086;-75
2022/01/03 00:30:56;;;;;;;3.45;1.40;;;10.30;99.90;;;;;;4981059;28;20099;-74
2022/01/03 00:33:23;;;;;;;11.95;2.55;;;10.30;99.90;;;;;;5044154;28;20040;-74
2022/01/03 00:35:59;;;;;;;6.25;1.73;;;10.30;99.90;;;;;;5037970;28;20025;-74
2022/01/03 00:38:27;;;;;;;9.48;2.05;;;10.30;99.90;;;;;;5038648;28;20718;-74
2022/01/03 00:40:54;;;;;;;5.95;2.20;;;10.30;99.90;;;;;;5029791;28;20370;-74
2022/01/03 00:43:19;;;;;;;6.93;2.00;;;10.30;99.90;;;;;;5029397;28;20045;-76
2022/01/03 00:45:45;;;;;;;5.80;1.70;;;10.30;99.90;;;;;;5037021;28;20033;-73
2022/01/03 00:48:12;;;;;;;4.43;2.00;;;10.40;99.90;;;;;;5045472;28;20112;-74
2022/01/03 00:50:38;;;;;;;7.30;1.90;;;10.30;99.90;;;;;;5040934;28;20111;-74
2022/01/03 00:53:05;;;;;;;5.35;1.67;;;10.40;99.90;;;;;;5028461;28;20029;-74
2022/01/03 00:55:31;;;;;;;8.48;1.70;;;10.40;99.90;;;;;;5044824;28;20149;-75
2022/01/03 00:58:06;;;;;;;7.00;1.98;;;10.40;99.90;;;;;;5041928;28;20071;-75
2022/01/03 01:00:38;;;;;;;5.07;1.73;;;10.40;99.90;;;;;;5048401;28;20047;-74
2022/01/03 01:03:15;;;;;;;3.53;2.05;;;10.40;99.90;;;;;;5032127;28;20040;-74
2022/01/03 01:05:47;;;;;;;5.00;1.50;;;10.50;99.90;;;;;;5019241;28;20909;-75
2022/01/03 01:08:17;;;;;;;7.90;1.77;;;10.50;99.90;;;;;;5032452;28;20040;-73
2022/01/03 01:10:44;;;;;;;5.17;1.50;;;10.50;99.90;;;;;;5044621;28;20370;-74
2022/01/03 01:13:12;;;;;;;5.05;1.63;;;10.40;99.90;;;;;;5039222;28;20311;-74
2022/01/03 01:15:38;;;;;;;3.58;1.63;;;10.40;99.90;;;;;;5044025;28;20036;-75
2022/01/03 01:18:04;;;;;;;2.88;1.42;;;10.40;99.90;;;;;;5042533;28;20055;-73
2022/01/03 01:20:36;;;;;;;4.90;1.55;;;10.40;99.90;;;;;;5041452;28;20029;-73
2022/01/03 01:23:03;;;;;;;7.25;1.63;;;10.40;99.90;;;;;;5028027;28;20034;-75
2022/01/03 01:28:01;;;;;;;8.75;1.70;;;10.30;99.90;;;;;;5035904;28;20683;-72
2022/01/03 01:30:28;;;;;;;5.30;2.13;;;10.20;99.90;;;;;;5035463;28;20028;-74
2022/01/03 01:33:13;;;;;;;5.53;1.60;;;10.20;99.90;;;;;;5014729;28;20514;-74
2022/01/03 01:35:48;;;;;;;6.30;1.33;;;10.30;99.90;;;;;;5043914;28;20033;-75
2022/01/03 01:38:16;;;;;;;9.40;1.63;;;10.20;99.90;;;;;;5036928;28;20239;-75
2022/01/03 01:40:46;;;;;;;3.47;1.23;;;10.20;99.90;;;;;;5031585;28;20032;-73
2022/01/03 01:43:13;;;;;;;5.05;1.52;;;10.20;99.90;;;;;;5041052;28;20044;-74
2022/01/03 01:45:43;;;;;;;6.75;1.42;;;10.30;99.90;;;;;;5037613;28;20030;-73
2022/01/03 01:48:11;;;;;;;5.50;1.58;;;10.30;99.90;;;;;;5046701;28;20040;-74
2022/01/03 01:50:41;;;;;;;6.75;1.20;;;10.30;99.90;;;;;;5043379;28;20053;-75
2022/01/03 01:53:08;;;;;;;5.38;1.00;;;10.40;99.90;;;;;;5024612;28;20033;-75
2022/01/03 01:55:40;;;;;;;2.30;0.90;;;10.50;99.90;;;;;;5038090;28;20037;-73
2022/01/03 01:58:21;;;;;;;6.47;2.03;;;10.60;99.90;;;;;;5034031;28;20507;-75
2022/01/03 02:00:55;;;;;;;6.80;1.23;;;10.70;99.90;;;;;;5044899;28;20148;-73
2022/01/03 02:03:37;;;;;;;6.90;1.63;;;10.60;99.90;;;;;;5040450;28;20100;-77
2022/01/03 02:06:29;;;;;;;3.50;1.20;;;10.70;99.90;;;;;;5046931;28;20032;-74
2022/01/03 02:09:03;;;;;;;3.67;1.10;;;10.70;99.90;;;;;;5029927;28;20046;-75
2022/01/03 02:11:49;;;;;;;8.18;1.90;;;10.70;99.90;;;;;;5021340;28;20033;-75
2022/01/03 02:14:15;;;;;;;6.60;1.30;;;10.70;99.90;;;;;;5039538;28;20049;-73
2022/01/03 02:16:42;;;;;;;5.47;1.13;;;10.80;99.90;;;;;;5038088;28;20037;-75
2022/01/03 02:19:08;;;;;;;5.03;1.33;;;10.70;99.90;;;;;;5032113;28;20367;-75
2022/01/03 02:21:34;;;;;;;6.22;1.35;;;10.80;99.90;;;;;;5039792;28;20068;-73
2022/01/03 02:24:00;;;;;;;5.60;0.93;;;10.80;99.90;;;;;;5042637;28;20076;-73
2022/01/03 02:26:28;;;;;;;5.55;1.10;;;10.70;99.90;;;;;;5038127;28;20534;-76
2022/01/03 02:28:54;;;;;;;5.28;1.20;;;10.70;99.90;;;;;;5041459;28;20048;-74
2022/01/03 02:31:21;;;;;;;11.45;1.05;;;10.70;99.90;;;;;;5042621;28;20036;-75
2022/01/03 02:33:47;;;;;;;4.85;1.20;;;10.60;99.90;;;;;;5033038;28;20041;-75
2022/01/03 02:36:15;;;;;;;6.63;1.25;;;10.70;99.90;;;;;;5046739;28;20099;-74
2022/01/03 02:38:40;;;;;;;6.82;1.33;;;10.70;99.90;;;;;;5040535;28;20029;-74
2022/01/03 02:41:06;;;;;;;6.72;1.40;;;10.70;99.90;;;;;;5043698;28;20454;-73
2022/01/03 02:43:32;;;;;;;7.15;1.67;;;10.60;99.90;;;;;;5032898;28;20432;-73
2022/01/03 02:45:57;;;;;;;3.78;1.05;;;10.60;99.90;;;;;;5037003;28;20033;-73
2022/01/03 02:48:23;;;;;;;3.10;1.05;;;10.60;99.90;;;;;;5034908;28;20598;-76
2022/01/03 02:50:49;;;;;;;3.45;1.15;;;10.60;99.90;;;;;;5031141;28;20511;-73
2022/01/03 02:53:15;;;;;;;4.65;1.23;;;10.60;99.90;;;;;;5049205;28;20041;-74
2022/01/03 02:55:41;;;;;;;4.85;1.38;;;10.70;99.90;;;;;;5041328;28;20072;-73
2022/01/03 02:58:07;;;;;;;7.53;1.27;;;10.70;99.90;;;;;;5051086;28;20061;-74
2022/01/03 03:00:36;;;;;;;5.90;1.00;;;10.80;99.90;;;;;;5036900;28;20032;-73
2022/01/03 03:03:03;;;;;;;3.63;1.02;;;10.70;99.90;;;;;;5037071;28;20116;-73
2022/01/03 03:05:29;;;;;;;8.10;0.93;;;10.70;99.90;;;;;;5050574;28;20074;-75
2022/01/03 03:07:55;;;;;;;5.05;1.30;;;10.70;99.90;;;;;;5042629;28;20029;-74
2022/01/03 03:10:24;;;;;;;5.10;1.10;;;10.70;99.90;;;;;;5041610;28;20040;-74
2022/01/03 03:12:50;;;;;;;5.78;1.10;;;10.70;99.90;;;;;;5028681;28;20453;-73
2022/01/03 03:15:17;;;;;;;6.07;1.65;;;10.60;99.90;;;;;;5031422;28;20065;-74
2022/01/03 03:17:44;;;;;;;3.70;0.93;;;10.70;99.90;;;;;;5041319;28;20528;-73
2022/01/03 03:20:18;;;;;;;4.22;0.98;;;10.60;99.90;;;;;;5026701;28;20064;-74
2022/01/03 03:22:45;;;;;;;3.38;0.90;;;10.60;99.90;;;;;;5034805;28;20496;-74
2022/01/03 03:25:22;;;;;;;8.48;1.35;;;10.60;99.90;;;;;;5033700;28;20095;-74
2022/01/03 03:27:51;;;;;;;3.47;1.13;;;10.60;99.90;;;;;;5045089;28;20191;-73
2022/01/03 03:30:22;;;;;;;4.85;1.60;;;10.50;99.90;;;;;;5023024;28;20509;-74
2022/01/03 03:32:49;;;;;;;8.13;1.33;;;10.50;99.90;;;;;;5030391;28;20204;-74
2022/01/03 03:35:16;;;;;;;6.78;1.95;;;10.40;99.90;;;;;;5026883;28;20550;-73
2022/01/03 03:37:42;;;;;;;5.45;1.08;;;10.50;99.90;;;;;;5036292;28;20127;-75
2022/01/03 03:40:08;;;;;;;5.55;1.08;;;10.50;99.90;;;;;;5048380;28;20504;-75
2022/01/03 03:42:34;;;;;;;4.63;1.23;;;10.60;99.90;;;;;;5035056;28;20117;-74
2022/01/03 03:45:00;;;;;;;4.57;1.05;;;10.50;99.90;;;;;;5042541;28;20108;-75
2022/01/03 03:47:26;;;;;;;4.68;1.23;;;10.50;99.90;;;;;;5042281;28;20067;-73
2022/01/03 03:49:52;;;;;;;4.47;1.25;;;10.40;99.90;;;;;;5039911;28;20447;-74
2022/01/03 03:52:17;;;;;;;5.35;1.10;;;10.50;99.90;;;;;;5032239;28;20017;-74
2022/01/03 03:54:43;;;;;;;6.47;1.40;;;10.40;99.90;;;;;;5044331;28;20036;-75
2022/01/03 03:57:08;;;;;;;5.65;1.13;;;10.30;99.90;;;;;;5036652;28;20053;-74
2022/01/03 03:59:35;;;;;;;4.25;1.27;;;10.40;99.90;;;;;;5032289;28;20041;-73
2022/01/03 04:02:01;;;;;;;6.13;1.15;;;10.40;99.90;;;;;;5046244;28;20025;-74
2022/01/03 04:04:27;;;;;;;9.48;1.58;;;10.40;99.90;;;;;;5038364;28;20479;-74
2022/01/03 04:06:53;;;;;;;4.55;1.13;;;10.40;99.90;;;;;;5032601;28;20032;-73
2022/01/03 04:09:19;;;;;;;5.25;1.27;;;10.40;99.90;;;;;;5021798;28;20083;-74
2022/01/03 04:11:44;;;;;;;5.03;1.20;;;10.30;99.90;;;;;;5038645;28;20044;-74
2022/01/03 04:14:10;;;;;;;6.25;1.10;;;10.30;99.90;;;;;;5049150;28;20477;-73
2022/01/03 04:16:36;;;;;;;7.32;1.25;;;10.40;99.90;;;;;;5042966;28;20377;-74
2022/01/03 04:19:03;;;;;;;6.40;1.17;;;10.40;99.90;;;;;;5043982;28;20032;-74
2022/01/03 04:21:28;;;;;;;3.55;1.20;;;10.30;99.90;;;;;;5031199;28;20025;-75
2022/01/03 04:23:54;;;;;;;5.13;0.90;;;10.30;99.90;;;;;;5042568;28;20052;-74
2022/01/03 04:26:20;;;;;;;4.05;0.90;;;10.40;99.90;;;;;;5046641;28;20472;-74
2022/01/03 04:28:47;;;;;;;5.97;1.17;;;10.30;99.90;;;;;;5036571;28;20046;-73
2022/01/03 04:31:13;;;;;;;3.65;0.90;;;10.30;99.90;;;;;;5038840;28;20039;-74
2022/01/03 04:33:39;;;;;;;4.82;1.02;;;10.30;99.90;;;;;;5034643;28;20033;-74
2022/01/03 04:36:05;;;;;;;5.78;1.35;;;10.30;99.90;;;;;;5045836;28;20500;-74
2022/01/03 04:38:32;;;;;;;7.40;1.83;;;10.30;99.90;;;;;;5030840;28;20055;-76
2022/01/03 04:40:59;;;;;;;7.03;1.40;;;10.30;99.90;;;;;;5041111;28;20029;-74
2022/01/03 04:43:25;;;;;;;5.05;1.25;;;10.20;99.90;;;;;;5029266;28;20056;-73
2022/01/03 04:45:51;;;;;;;5.97;1.17;;;10.10;99.90;;;;;;5039561;28;20026;-74
2022/01/03 04:48:17;;;;;;;5.68;1.63;;;10.10;99.90;;;;;;5041712;28;20030;-74
2022/01/03 04:50:42;;;;;;;7.88;1.23;;;10.10;99.90;;;;;;5030849;28;20025;-75
2022/01/03 04:53:08;;;;;;;9.70;1.77;;;10.10;99.90;;;;;;5030184;28;20040;-74
2022/01/03 04:55:34;;;;;;;8.18;1.42;;;10.10;99.90;;;;;;5038242;28;20046;-76
2022/01/03 04:57:59;;;;;;;6.43;1.55;;;10.10;99.90;;;;;;5037405;28;20526;-75
2022/01/03 05:00:25;;;;;;;9.02;2.28;;;10.10;99.90;;;;;;5030935;28;20032;-73
2022/01/03 05:02:51;;;;;;;5.18;1.27;;;10.20;99.90;;;;;;5039017;28;20497;-73
2022/01/03 05:05:17;;;;;;;18.10;1.75;;;10.10;99.90;;;;;;5023341;28;20038;-74
2022/01/03 05:07:42;;;;;;;5.57;1.48;;;10.10;99.90;;;;;;5037040;28;20033;-75
2022/01/03 05:10:08;;;;;;;8.38;1.30;;;10.10;99.90;;;;;;5030969;28;20548;-74
2022/01/03 05:12:34;;;;;;;7.00;1.35;;;10.10;99.90;;;;;;5037041;28;20045;-77
2022/01/03 05:15:00;;;;;;;6.82;1.27;;;10.10;99.90;;;;;;5030260;28;20043;-76
2022/01/03 05:17:25;;;;;;;6.25;1.30;;;10.00;99.90;;;;;;5030498;28;20071;-73
2022/01/03 05:19:51;;;;;;;5.95;1.50;;;10.00;99.90;;;;;;5037507;28;20036;-75
2022/01/03 05:22:16;;;;;;;5.55;1.52;;;10.00;99.90;;;;;;5042589;28;20029;-76
2022/01/03 05:24:42;;;;;;;7.30;1.52;;;10.00;99.90;;;;;;5048533;28;20381;-75
2022/01/03 05:27:08;;;;;;;3.65;1.15;;;9.90;99.90;;;;;;5039477;28;20029;-75
2022/01/03 05:29:34;;;;;;;12.02;1.90;;;9.90;99.90;;;;;;5015625;28;20076;-75
2022/01/03 05:32:00;;;;;;;3.80;1.20;;;9.70;99.90;;;;;;5033702;28;20029;-75
2022/01/03 05:34:26;;;;;;;6.35;1.30;;;9.60;99.90;;;;;;5033735;28;20095;-75
2022/01/03 05:36:53;;;;;;;9.43;1.35;;;9.40;99.90;;;;;;5033890;28;20037;-75
2022/01/03 05:39:18;;;;;;;6.30;1.60;;;9.30;99.90;;;;;;5040059;28;20032;-76
2022/01/03 05:41:44;;;;;;;4.93;1.33;;;9.20;99.90;;;;;;5032329;28;20041;-75
2022/01/03 05:44:10;;;;;;;3.80;0.90;;;9.10;99.90;;;;;;5020275;28;20508;-76
2022/01/03 05:46:36;;;;;;;7.82;1.52;;;9.00;99.90;;;;;;5049407;28;20111;-75
2022/01/03 05:49:03;;;;;;;2.90;0.88;;;8.90;99.90;;;;;;5052118;28;20048;-76
2022/01/03 05:51:28;;;;;;;6.18;0.70;;;8.80;99.90;;;;;;5041478;28;20026;-76
2022/01/03 05:53:54;;;;;;;3.97;0.55;;;8.80;99.90;;;;;;5023136;28;20033;-75
2022/01/03 05:56:20;;;;;;;4.50;0.65;;;8.70;99.90;;;;;;5042270;28;20064;-75
2022/01/03 05:58:46;;;;;;;3.95;0.90;;;8.70;99.90;;;;;;5043597;28;20478;-75
2022/01/03 06:01:12;;;;;;;6.50;0.90;;;8.60;99.90;;;;;;5029758;28;20098;-75
2022/01/03 06:03:39;;;;;;;6.60;0.70;;;8.50;99.90;;;;;;5048099;28;20033;-77
2022/01/03 06:06:20;;;;;;;6.65;0.70;;;8.50;99.90;;;;;;5036683;28;20029;-74
2022/01/03 06:08:46;;;;;;;3.33;0.70;;;8.40;99.90;;;;;;5019768;28;20033;-75
2022/01/03 06:11:11;;;;;;;6.68;0.85;;;8.40;99.90;;;;;;5049601;28;20479;-75
2022/01/03 06:13:37;;;;;;;9.25;0.75;;;8.30;99.90;;;;;;5032137;28;20583;-77
2022/01/03 06:16:03;;;;;;;5.93;0.85;;;8.30;99.90;;;;;;5042967;28;20061;-76
2022/01/03 06:18:29;;;;;;;10.23;1.25;;;8.20;99.90;;;;;;5045340;28;20095;-75
2022/01/03 06:20:54;;;;;;;3.85;0.70;;;8.20;99.90;;;;;;5051185;28;20033;-75
2022/01/03 06:23:20;;;;;;;3.03;0.85;;;8.10;99.90;;;;;;5015857;28;20029;-76
2022/01/03 06:25:46;;;;;;;7.47;0.98;;;8.10;99.90;;;;;;5019614;28;20099;-75
2022/01/03 06:28:12;;;;;;;4.80;0.90;;;8.00;99.90;;;;;;5045089;28;20132;-75
2022/01/03 06:30:41;;;;;;;5.15;0.73;;;8.10;99.90;;;;;;5048892;28;20444;-76
2022/01/03 06:33:08;;;;;;;7.53;0.93;;;8.10;99.90;;;;;;5050928;28;20033;-75
2022/01/03 06:35:35;;;;;;;6.15;0.90;;;8.10;99.90;;;;;;5043211;28;20483;-73
2022/01/03 06:38:02;;;;;;;7.22;0.85;;;8.00;99.90;;;;;;5042039;28;20018;-74
2022/01/03 06:40:28;;;;;;;7.50;1.13;;;8.10;99.90;;;;;;5017258;28;20029;-76
2022/01/03 06:42:54;;;;;;;5.88;1.05;;;8.10;99.90;;;;;;5037788;28;20102;-75
2022/01/03 06:45:20;;;;;;;4.78;1.10;;;8.00;99.90;;;;;;5049978;28;20029;-76
2022/01/03 06:47:46;;;;;;;7.00;1.48;;;8.00;99.90;;;;;;5041406;28;20032;-75
2022/01/03 06:50:12;;;;;;;10.63;1.33;;;8.10;99.90;;;;;;5042823;28;20029;-76
2022/01/03 06:52:38;;;;;;;6.95;1.10;;;8.00;99.90;;;;;;5048893;28;20074;-76
2022/01/03 06:55:05;;;;;;;6.45;1.10;;;7.90;99.90;;;;;;5050858;28;20175;-75
2022/01/03 06:57:31;;;;;;;17.95;1.60;;;7.90;99.90;;;;;;5049089;28;20029;-77
2022/01/03 06:59:57;;;;;;;5.05;0.93;;;8.00;99.90;;;;;;5047428;28;20381;-74
2022/01/03 07:02:23;;;;;;;3.63;1.00;;;8.00;99.90;;;;;;5041993;28;20018;-77
2022/01/03 07:04:49;;;;;;;8.20;1.45;;;8.00;99.90;;;;;;5041836;28;20067;-75
2022/01/03 07:07:15;;;;;;;12.68;1.40;;;8.10;99.90;;;;;;5038660;28;20029;-77
2022/01/03 07:09:41;;;;;;;10.13;1.27;;;8.10;99.90;;;;;;5025862;28;20037;-76
2022/01/03 07:12:07;;;;;;;7.85;1.30;;;8.20;99.90;;;;;;5049375;28;20662;-76
2022/01/03 07:19:52;;;;;;;8.30;1.40;;;8.10;99.90;;;;;;5046442;28;20095;-77
2022/01/03 07:22:18;;;;;;;5.70;1.83;;;8.10;99.90;;;;;;5028859;28;20465;-76
2022/01/03 07:24:44;;;;;;;14.50;1.42;;;8.10;99.90;;;;;;5040667;28;20037;-77
2022/01/03 07:27:12;;;;;;;5.68;1.00;;;8.00;99.90;;;;;;5038734;28;20465;-76
2022/01/03 07:29:38;;;;;;;12.02;1.30;;;8.00;99.90;;;;;;5045233;28;20025;-76
2022/01/03 07:32:04;;;;;;;6.57;1.52;;;8.00;99.90;;;;;;5044822;28;20033;-76
2022/01/03 07:34:30;;;;;;;5.93;1.65;;;8.00;99.90;;;;;;5038973;28;20045;-74
2022/01/03 07:36:56;;;;;;;6.32;1.73;;;8.10;99.90;;;;;;5037107;28;20108;-76
2022/01/03 07:39:23;;;;;;;10.00;1.85;;;8.00;99.90;;;;;;5033348;28;20037;-74
2022/01/03 07:41:48;;;;;;;11.07;1.52;;;8.10;99.90;;;;;;5042523;28;20494;-76
2022/01/03 07:44:14;;;;;;;7.00;1.40;;;7.90;99.90;;;;;;5048947;28;20052;-77
2022/01/03 07:46:40;;;;;;;8.05;1.88;;;7.90;99.90;;;;;;5042449;28;20041;-77
2022/01/03 07:49:05;;;;;;;7.13;1.48;;;7.90;99.90;;;;;;5045085;28;20164;-76
2022/01/03 07:51:31;;;;;;;12.98;1.60;;;7.90;99.90;;;;;;5044065;28;20041;-77
2022/01/03 07:53:57;;;;;;;6.43;1.35;;;7.90;99.90;;;;;;5046452;28;20086;-75
2022/01/03 07:56:22;;;;;;;6.40;1.42;;;7.90;99.90;;;;;;5046014;28;20030;-75
2022/01/03 07:58:49;;;;;;;3.75;1.15;;;8.00;99.90;;;;;;5043253;28;20062;-76
2022/01/03 08:01:15;;;;;;;5.68;1.30;;;8.00;99.90;;;;;;5044480;28;20044;-73
2022/01/03 08:03:41;;;;;;;5.43;1.20;;;8.00;99.90;;;;;;5045517;28;20040;-73
2022/01/03 08:06:09;;;;;;;7.47;1.60;;;8.00;99.90;;;;;;5042359;28;20017;-74
2022/01/03 08:08:35;;;;;;;8.15;1.45;;;8.00;99.90;;;;;;5040626;28;20033;-73
2022/01/03 08:11:01;;;;;;;13.38;1.92;;;8.00;99.90;;;;;;5045148;28;20155;-74
2022/01/03 08:13:27;;;;;;;6.78;1.60;;;8.00;99.90;;;;;;5044971;28;22008;-74
2022/01/03 08:15:53;;;;;;;6.65;1.70;;;8.00;99.90;;;;;;5048720;28;20029;-73
2022/01/03 08:18:19;;;;;;;7.35;1.92;;;8.00;99.90;;;;;;5047976;28;20029;-74
2022/01/03 08:20:44;;;;;;;9.35;1.90;;;7.90;99.90;;;;;;5049331;28;20031;-74
2022/01/03 08:23:10;;;;;;;11.60;1.73;;;7.90;99.90;;;;;;5047340;28;20100;-76
2022/01/03 08:25:39;;;;;;;7.72;1.73;;;7.90;99.90;;;;;;5043472;28;20052;-75
2022/01/03 08:28:06;;;;;;;8.38;1.55;;;8.00;99.90;;;;;;5020345;28;20033;-76
2022/01/03 08:30:33;;;;;;;6.03;1.70;;;8.00;99.90;;;;;;5048588;28;20039;-76
2022/01/03 08:32:59;;;;;;;11.05;1.80;;;8.00;99.90;;;;;;5039416;28;20024;-75
2022/01/03 08:35:25;;;;;;;8.27;1.42;;;8.00;99.90;;;;;;5032890;28;20029;-75
2022/01/03 08:37:51;;;;;;;8.77;1.60;;;8.10;99.90;;;;;;5036138;28;20025;-77
2022/01/03 08:40:17;;;;;;;7.10;1.52;;;8.10;99.90;;;;;;5040031;28;20029;-75
2022/01/03 08:42:43;;;;;;;12.18;2.55;;;8.20;99.90;;;;;;5043667;28;20067;-76
2022/01/03 08:45:09;;;;;;;11.00;1.33;;;8.20;99.90;;;;;;5040949;28;20086;-76
2022/01/03 08:47:35;;;;;;;8.73;1.60;;;8.20;99.90;;;;;;5048732;28;20076;-76
2022/01/03 08:50:01;;;;;;;11.68;2.10;;;8.20;99.90;;;;;;5042140;28;20545;-78
2022/01/03 08:52:27;;;;;;;9.30;1.30;;;8.20;99.90;;;;;;5023889;28;20042;-75
2022/01/03 08:54:53;;;;;;;10.30;1.75;;;8.20;99.90;;;;;;5024191;28;20059;-76
2022/01/03 08:57:21;;;;;;;12.75;2.05;;;8.20;99.90;;;;;;5029181;28;20036;-75
2022/01/03 08:59:47;;;;;;;11.32;2.00;;;8.20;99.90;;;;;;5035328;28;20457;-77
2022/01/03 09:02:12;;;;;;;10.63;2.00;;;8.30;99.90;;;;;;5020715;28;20037;-76
2022/01/03 09:04:39;;;;;;;10.80;1.98;;;8.30;99.90;;;;;;5030442;28;20056;-76
2022/01/03 09:07:05;;;;;;;7.70;1.90;;;8.20;99.90;;;;;;5038811;28;20033;-75
2022/01/03 09:09:32;;;;;;;14.38;2.20;;;8.20;99.90;;;;;;5038629;28;20036;-77
2022/01/03 09:11:59;;;;;;;10.20;2.53;;;8.20;99.90;;;;;;5037080;28;20033;-75
2022/01/03 09:14:25;;;;;;;16.27;2.70;;;8.30;99.90;;;;;;5038521;28;20077;-75
2022/01/03 09:16:52;;;;;;;6.45;2.40;;;8.30;99.90;;;;;;5039271;28;20714;-74
2022/01/03 09:19:17;;;;;;;12.60;2.15;;;8.30;99.90;;;;;;5033276;28;20025;-73
2022/01/03 09:21:43;;;;;;;12.13;2.30;;;8.20;99.90;;;;;;5018319;28;20112;-74
2022/01/03 09:29:31;;;;;;;9.43;1.77;;;8.10;99.90;;;;;;5048793;28;20044;-73
2022/01/03 09:31:57;;;;;;;15.27;2.10;;;8.10;99.90;;;;;;5044994;28;20033;-73
2022/01/03 09:34:23;;;;;;;10.55;1.92;;;8.00;99.90;;;;;;5048698;28;20090;-74
2022/01/03 09:36:48;;;;;;;7.50;1.48;;;8.00;99.90;;;;;;5034539;28;20033;-74
2022/01/03 09:39:14;;;;;;;8.27;1.80;;;8.10;99.90;;;;;;5035084;28;20043;-73
2022/01/03 09:41:48;;;;;;;6.90;1.90;;;8.20;99.90;;;;;;5034638;28;20029;-73
2022/01/03 09:44:15;;;;;;;5.57;1.48;;;8.30;99.90;;;;;;5035050;28;20041;-73
2022/01/03 09:46:42;;;;;;;6.20;2.05;;;8.30;99.90;;;;;;5029459;28;20036;-73
2022/01/03 09:49:13;;;;;;;10.07;1.98;;;8.40;99.90;;;;;;5009962;28;20036;-73
2022/01/03 09:51:40;;;;;;;9.00;2.08;;;8.50;99.90;;;;;;5032271;28;20025;-73
2022/01/03 09:54:08;;;;;;;8.23;1.83;;;8.60;99.90;;;;;;5028218;28;20069;-72
2022/01/03 09:56:38;;;;;;;8.05;1.90;;;8.70;99.90;;;;;;5028778;28;20112;-73
2022/01/03 09:59:05;;;;;;;14.48;1.95;;;8.60;99.90;;;;;;5043239;28;20476;-73
2022/01/03 10:01:31;;;;;;;9.73;2.13;;;8.60;99.90;;;;;;5044765;28;20036;-73
2022/01/03 10:03:58;;;;;;;10.68;2.65;;;8.60;99.90;;;;;;5044940;28;20036;-73
2022/01/03 10:06:25;;;;;;;11.02;2.50;;;8.70;99.90;;;;;;5028739;28;20033;-73
2022/01/03 10:08:51;;;;;;;12.27;2.42;;;8.70;99.90;;;;;;5032427;28;20033;-75
2022/01/03 10:11:19;;;;;;;5.47;1.98;;;8.70;99.90;;;;;;5014362;28;20385;-73
2022/01/03 10:13:45;;;;;;;9.65;2.10;;;8.80;99.90;;;;;;5028456;28;20156;-72
2022/01/03 10:16:11;;;;;;;7.88;2.00;;;8.70;99.90;;;;;;5034093;28;20109;-73
2022/01/03 10:18:37;;;;;;;12.07;2.08;;;8.80;99.90;;;;;;5032686;28;20384;-73
2022/01/03 10:21:06;;;;;;;13.52;2.58;;;8.80;99.90;;;;;;5043812;28;20091;-73
2022/01/03 10:23:31;;;;;;;10.45;2.30;;;8.90;99.90;;;;;;5038488;28;20033;-74
2022/01/03 10:26:18;;;;;;;11.32;2.30;;;9.00;99.90;;;;;;5034876;28;20049;-74
2022/01/03 10:28:44;;;;;;;11.57;2.53;;;9.00;99.90;;;;;;5041230;28;20571;-73
2022/01/03 10:31:18;;;;;;;11.38;1.75;;;9.10;99.90;;;;;;5035397;28;20879;-73
2022/01/03 10:33:45;;;;;;;8.10;1.40;;;9.10;99.90;;;;;;5041940;28;20087;-71
2022/01/03 10:36:31;;;;;;;10.77;1.70;;;9.20;99.90;;;;;;5043070;28;20044;-71
2022/01/03 10:38:59;;;;;;;6.65;1.73;;;9.20;99.90;;;;;;5035830;28;20124;-73
2022/01/03 10:41:27;;;;;;;12.30;2.10;;;9.20;99.90;;;;;;5021935;28;20561;-73
2022/01/03 10:43:59;;;;;;;10.57;1.77;;;9.20;99.90;;;;;;5032816;28;20308;-72
2022/01/03 10:46:33;;;;;;;7.20;2.03;;;9.30;99.90;;;;;;5037829;28;20033;-75
2022/01/03 10:49:25;;;;;;;7.00;1.70;;;9.30;99.90;;;;;;5018368;28;20013;-75
2022/01/03 10:51:51;;;;;;;8.00;1.55;;;9.30;99.90;;;;;;5010169;28;20581;-74
2022/01/03 10:54:18;;;;;;;7.80;1.92;;;9.40;99.90;;;;;;5029056;28;20124;-71
2022/01/03 10:56:50;;;;;;;10.40;1.50;;;9.30;99.90;;;;;;5004721;28;20045;-72
2022/01/03 10:59:26;;;;;;;6.13;1.40;;;9.40;99.90;;;;;;5016151;28;20180;-72
2022/01/03 11:01:58;;;;;;;6.97;1.58;;;9.40;99.90;;;;;;4998762;28;20055;-73
2022/01/03 11:04:30;;;;;;;9.27;1.75;;;9.40;99.90;;;;;;5022885;28;20029;-73
2022/01/03 11:13:22;;;;;;;8.68;1.60;;;9.50;99.90;;;;;;5013487;28;20084;-73
2022/01/03 11:15:57;;;;;;;8.18;1.73;;;9.50;99.90;;;;;;5026361;28;20049;-72
2022/01/03 11:18:28;;;;;;;8.13;1.38;;;9.50;99.90;;;;;;5022849;28;20057;-73
2022/01/03 11:21:36;;;;;;;17.10;1.95;;;9.50;99.90;;;;;;5012638;28;20036;-75
2022/01/03 11:24:13;;;;;;;6.28;1.30;;;9.60;99.90;;;;;;4958748;28;20552;-72
2022/01/03 11:26:46;;;;;;;7.28;1.67;;;9.60;99.90;;;;;;5025340;28;20205;-71
2022/01/03 11:29:14;;;;;;;11.65;1.45;;;9.60;99.90;;;;;;5016864;28;20057;-73
2022/01/03 11:31:40;;;;;;;5.88;1.30;;;9.60;99.90;;;;;;5012712;28;20152;-72
2022/01/03 11:34:12;;;;;;;7.82;1.92;;;9.60;99.90;;;;;;5016559;28;20053;-72
2022/01/03 11:36:39;;;;;;;7.10;1.40;;;9.60;99.90;;;;;;5026022;28;20091;-72
2022/01/03 11:39:13;;;;;;;8.75;1.25;;;9.60;99.90;;;;;;5027805;28;20025;-74
2022/01/03 11:41:41;;;;;;;12.05;1.58;;;9.70;99.90;;;;;;4987041;28;20396;-71
2022/01/03 11:44:11;;;;;;;6.20;1.45;;;9.70;99.90;;;;;;5030397;28;20041;-71
2022/01/03 11:46:37;;;;;;;4.68;1.40;;;9.70;99.90;;;;;;5016030;28;20421;-72
2022/01/03 11:49:03;;;;;;;7.22;1.10;;;9.80;99.90;;;;;;5014495;28;20405;-71
2022/01/03 11:51:33;;;;;;;9.40;1.75;;;9.80;99.90;;;;;;5041420;28;20057;-71
2022/01/03 11:54:01;;;;;;;4.45;0.90;;;9.80;99.90;;;;;;5044814;28;20037;-78
2022/01/03 11:56:29;;;;;;;4.75;1.20;;;9.90;99.90;;;;;;5047274;28;20032;-70
2022/01/03 12:04:29;;;;;;;7.97;1.40;;;9.90;99.90;;;;;;5034762;28;20047;-75
2022/01/03 12:07:15;;;;;;;10.80;1.70;;;9.90;99.90;;;;;;5024714;28;20091;-72
2022/01/03 12:09:50;;;;;;;12.13;1.55;;;9.90;99.90;;;;;;5036431;28;20059;-71
2022/01/03 12:12:39;;;;;;;10.23;1.58;;;10.00;99.90;;;;;;5039417;28;20277;-71
2022/01/03 12:15:25;;;;;;;7.97;1.40;;;10.00;99.90;;;;;;5023675;28;20052;-71
2022/01/03 12:17:51;;;;;;;11.38;1.60;;;10.00;99.90;;;;;;5013638;28;20037;-71
2022/01/03 12:20:17;;;;;;;9.13;1.48;;;10.00;99.90;;;;;;5019702;28;20026;-72
2022/01/03 12:22:50;;;;;;;7.47;1.85;;;9.90;99.90;;;;;;5011601;28;20038;-70
2022/01/03 12:25:33;;;;;;;6.93;1.67;;;9.90;99.90;;;;;;5012606;28;20034;-71
2022/01/03 12:28:01;;;;;;;9.18;1.90;;;10.00;99.90;;;;;;5025944;28;20493;-71
2022/01/03 12:30:32;;;;;;;6.75;1.45;;;9.90;99.90;;;;;;5020816;28;20425;-71
2022/01/03 12:33:06;;;;;;;;;;;9.90;99.90;;;;;;5023232;28;20056;-71
2022/01/03 12:35:37;;;;;;;8.23;1.52;;;9.90;99.90;;;;;;5019955;28;19987;-72
2022/01/03 12:38:03;;;;;;;5.38;1.25;;;10.00;99.90;;;;;;5019090;28;20055;-72
2022/01/03 12:40:48;;;;;;;10.65;1.52;;;10.00;99.90;;;;;;5024157;28;20466;-72
2022/01/03 12:43:16;;;;;;;10.95;1.50;;;10.00;99.90;;;;;;5020184;28;20022;-72
2022/01/03 12:45:44;;;;;;;6.95;1.30;;;10.00;99.90;;;;;;5028058;28;20034;-72
2022/01/03 12:48:10;;;;;;;10.32;1.60;;;10.10;99.90;;;;;;5016329;28;20061;-72
2022/01/03 12:50:52;;;;;;;8.60;1.60;;;10.10;99.90;;;;;;5015805;28;20530;-72
2022/01/03 12:53:26;;;;;;;6.43;1.42;;;10.10;99.90;;;;;;5018052;28;20617;-71
2022/01/03 12:56:02;;;;;;;6.43;1.40;;;10.10;99.90;;;;;;5023633;28;20041;-72
2022/01/03 12:58:37;;;;;;;4.20;1.58;;;10.10;99.90;;;;;;5018596;28;20026;-72
2022/01/03 13:01:28;;;;;;;10.45;2.00;;;10.20;99.90;;;;;;5018557;28;20488;-70
2022/01/03 13:03:56;;;;;;;9.23;1.50;;;10.10;99.90;;;;;;5015104;28;20117;-70
2022/01/03 13:06:33;;;;;;;5.35;1.15;;;10.10;99.90;;;;;;4996921;28;20129;-73
2022/01/03 13:09:07;;;;;;;4.38;1.38;;;10.10;99.90;;;;;;5023410;28;20018;-72
2022/01/03 13:11:39;;;;;;;2.45;1.08;;;10.20;99.90;;;;;;4997897;28;20069;-72
2022/01/03 13:14:34;;;;;;;2.92;0.98;;;10.20;99.90;;;;;;5030228;28;20194;-71
2022/01/03 13:16:59;;;;;;;6.05;1.13;;;10.20;99.90;;;;;;5030972;28;20041;-71
2022/01/03 13:19:27;;;;;;;7.85;1.20;;;10.30;99.90;;;;;;5032613;28;20029;-70
2022/01/03 13:21:54;;;;;;;5.40;1.23;;;10.30;99.90;;;;;;5034889;28;20082;-71